• Join FlightAware (Why Join?)
  • Login
  • US Flag 
07:35PM EST


 

Airport Tracker/Info


-or-


 

Live Flight TrackerFlight Track Log ✈ GJS3707 ✈ 27-May-2013 ✈ KBOI - KORD

Flight Track Log - Related Links

Times and Time Zones

All times are in EDT time to prevent confusion due to time zone crossing. See the GJS3707 flight status page for this flight to view local times or setup timezone preferences in your user account.

Time Position Orientation Groundspeed Altitude Reporting Facility
EDT Latitude Longitude Course Direction KTS MPH feet Rate Location/Type
03:47PM 43.5436 -116.1564 81° East 175 201 4,800  Level Salt Lake Center
03:48PM 43.5225 -116.0797 111° Southeast 202 232 6,700 1,860 Climbing Salt Lake Center
03:49PM 43.5250 -115.9789 88° East 267 307 8,700 1,920 Climbing Salt Lake Center
03:50PM 43.6554 -115.5738 78° East  Level FlightAware Approximate
03:50PM 43.5447 -115.8672 76° East 288 331 10,700  Level Salt Lake Center
03:51PM 43.6750 -115.4091 83° East  Level FlightAware Approximate
03:51PM 43.5647 -115.7453 77° East 337 388 12,100  Level Salt Lake Center
03:52PM 43.6956 -115.2465 65° Northeast  Level FlightAware Approximate
03:53PM 43.7169 -115.0821 81° East  Level FlightAware Approximate
03:53PM 43.5883 -115.6044 77° East 360 414 14,300  Level Salt Lake Center
03:54PM 43.6117 -115.4575 78° East 376 433 16,000 1,680 Climbing Salt Lake Center
03:55PM 43.6367 -115.3033 77° East 391 450 17,800 1,620 Climbing Salt Lake Center
03:56PM 43.6606 -115.1586 77° East 399 459 19,400 1,500 Climbing Salt Lake Center
03:57PM 43.6850 -114.9981 78° East 414 476 20,900 1,440 Climbing Salt Lake Center
03:58PM 43.7100 -114.8467 77° East 424 488 22,400 1,380 Climbing Salt Lake Center
03:59PM 43.7378 -114.6669 78° East 428 493 23,800 1,140 Climbing Salt Lake Center
04:00PM 43.7619 -114.5061 78° East 445 512 24,800 960 Climbing Salt Lake Center
04:01PM 43.7922 -114.3128 78° East 462 532 25,900 1,020 Climbing Salt Lake Center
04:02PM 43.8178 -114.1439 78° East 470 541 26,900 1,020 Climbing Salt Lake Center
04:03PM 43.8472 -113.9442 78° East 475 547 28,000 960 Climbing Salt Lake Center
04:04PM 43.8719 -113.7778 78° East 475 547 28,900 960 Climbing Salt Lake Center
04:05PM 43.9014 -113.5764 78° East 477 549 30,000 960 Climbing Salt Lake Center
04:06PM 43.9239 -113.4033 80° East 477 549 31,000 1,020 Climbing Salt Lake Center
04:07PM 43.9519 -113.2014 79° East 478 550 32,100 1,020 Climbing Salt Lake Center
04:08PM 43.9764 -113.0303 79° East 474 545 33,100 720 Climbing Salt Lake Center
04:09PM 43.9992 -112.8561 80° East 479 551 33,600 480 Climbing Salt Lake Center
04:10PM 44.0297 -112.6514 78° East 486 559 34,200 480 Climbing Salt Lake Center
04:11PM 44.0542 -112.4728 79° East 491 565 34,700 360 Climbing Salt Lake Center
04:12PM 44.0803 -112.2619 80° East 497 572 35,000 120 Climbing Salt Lake Center
04:13PM 44.0886 -112.0747 86° East 506 582 35,000  Level Salt Lake Center
04:14PM 44.0917 -111.8561 89° East 511 588 35,000  Level Salt Lake Center
04:15PM 44.0925 -111.6689 90° East 510 587 35,000  Level Salt Lake Center
04:16PM 44.0942 -111.4486 89° East 514 592 35,000  Level Salt Lake Center
04:17PM 44.0942 -111.2581 90° East 519 597 35,000  Level Salt Lake Center
04:18PM 44.0931 -111.0353 90° East 519 597 35,000  Level Salt Lake Center
04:19PM 44.0939 -110.8458 90° East 517 595 35,000  Level Salt Lake Center
04:20PM 44.0942 -110.6278 90° East 509 586 35,000  Level Salt Lake Center
04:21PM 44.0928 -110.4419 91° East 505 581 35,000  Level Salt Lake Center
04:22PM 44.0922 -110.2550 90° East 506 582 35,000  Level Salt Lake Center
04:23PM 44.0897 -110.0372 91° East 506 582 35,000  Level Salt Lake Center
04:24PM 44.0864 -109.8486 91° East 511 588 35,000  Level Salt Lake Center
04:25PM 44.0856 -109.6342 90° East 500 575 35,000  Level Salt Lake Center
04:26PM 44.0817 -109.4286 91° East 501 577 35,000  Level Salt Lake Center
04:27PM 44.0781 -109.2456 92° East 498 573 35,100  Climbing Salt Lake Center
04:28PM 44.0625 -109.0622 97° East 499 574 35,000 -60 Descending Salt Lake Center
04:30PM 44.0353 -108.8489 100° East 503 579 35,000  Level Salt Lake Center
04:31PM 44.0147 -108.6650 99° East 505 581 35,000  Level Salt Lake Center
04:32PM 43.9886 -108.4511 100° East 505 581 35,000  Level Salt Lake Center
04:33PM 43.9689 -108.2692 99° East 501 577 35,100 120 Climbing Salt Lake Center
04:34PM 43.9461 -108.0583 98° East 497 572 35,300 480 Climbing Salt Lake Center
04:35PM 43.9319 -107.8794 96° East 490 564 36,200 840 Climbing Salt Lake Center
04:36PM 43.9194 -107.6761 95° East 476 548 37,100 360 Climbing Salt Lake Center
04:37PM 43.8989 -107.5019 99° East 479 551 37,000 -60 Descending Salt Lake Center
04:38PM 43.8656 -107.3311 105° East 482 555 37,000  Level Salt Lake Center
04:39PM 43.8292 -107.1333 104° East 478 550 37,000  Level Salt Lake Center
04:39PM 43.8214 -107.0728 100° East 479 551 37,000  Level Denver Center
04:40PM 43.7872 -106.8742 103° East 477 549 37,000 -120 Level Denver Center
04:41PM 43.7672 -106.7639 104° East 475 547 36,900  Descending Salt Lake Center
04:42PM 43.7367 -106.5922 104° East 477 549 37,000 60 Climbing Salt Lake Center
04:42PM 43.7189 -106.5064 106° East 480 552 37,000  Level Denver Center
04:43PM 43.6889 -106.3367 104° East 477 549 37,000  Level Denver Center
04:44PM 43.6683 -106.2233 104° East 479 551 37,000  Level Salt Lake Center
04:45PM 43.6372 -106.0503 104° East 486 559 37,000  Level Salt Lake Center
04:45PM 43.6214 -105.9653 104° East 479 551 37,000  Level Denver Center
04:46PM 43.5856 -105.7664 104° East 480 552 37,000  Level Denver Center
04:47PM 43.5631 -105.5922 100° East 483 556 37,000  Level Denver Center
04:48PM 43.5708 -105.4119 87° East 493 567 37,000  Level Denver Center
04:49PM 43.5825 -105.2031 86° East 490 564 37,000  Level Denver Center
04:50PM 43.5889 -105.0219 87° East 492 566 37,000  Level Denver Center
04:52PM 43.5989 -104.8092 86° East 496 571 37,000  Level Denver Center
04:53PM 43.6069 -104.6250 86° East 499 574 37,000 -60 Level Denver Center
04:54PM 43.6158 -104.4164 87° East 489 563 36,900  Descending Denver Center
04:55PM 43.6222 -104.2431 87° East 476 548 37,000  Climbing Denver Center
04:56PM 43.6267 -104.0761 88° East 458 527 37,000  Level Denver Center
04:57PM 43.6328 -103.8772 88° East 465 535 37,000  Level Denver Center
04:58PM 43.6389 -103.7039 87° East 470 541 37,000  Level Denver Center
04:59PM 43.6453 -103.5028 87° East 470 541 37,000  Level Denver Center
05:00PM 43.6519 -103.3314 87° East 469 540 37,000  Level Denver Center
05:01PM 43.6561 -103.1244 88° East 477 549 37,000  Level Denver Center
05:02PM 43.6600 -102.9506 88° East 476 548 37,000  Level Denver Center
05:03PM 43.6628 -102.8033 88° East 479 551 37,000  Level Denver Center
05:04PM 43.6664 -102.5678 89° East 480 552 37,000  Level Denver Center
05:05PM 43.6722 -102.3675 88° East 472 543 37,000  Level Denver Center
05:06PM 43.6764 -102.1944 88° East 473 544 37,000  Level Denver Center
05:07PM 43.6794 -101.9925 89° East 477 549 37,000  Level Denver Center
05:08PM 43.6836 -101.8114 88° East 474 545 37,000  Level Denver Center
05:09PM 43.6853 -101.6300 89° East 474 545 37,000  Level Denver Center
05:10PM 43.6869 -101.4850 89° East 474 545 37,000  Level Minneapolis Center
05:11PM 43.6897 -101.2642 89° East 479 551 37,000  Level Denver Center
05:12PM 43.6964 -101.0447 88° East 480 552 37,000  Level Minneapolis Center
05:13PM 43.7097 -100.8622 84° East 480 552 37,000  Level Minneapolis Center
05:14PM 43.7208 -100.6769 85° East 485 558 37,000  Level Minneapolis Center
05:15PM 43.7322 -100.4897 85° East 488 562 37,000  Level Minneapolis Center
05:16PM 43.7439 -100.3039 85° East 488 562 37,000  Level Minneapolis Center
05:17PM 43.7547 -100.1175 85° East 489 563 37,000  Level Minneapolis Center
05:18PM 43.7667 -99.8911 86° East 492 566 37,000  Level Minneapolis Center
05:19PM 43.7764 -99.7033 86° East 492 566 37,000  Level Minneapolis Center
05:20PM 43.7858 -99.5158 86° East 492 566 37,000  Level Minneapolis Center
05:22PM 43.7953 -99.3314 86° East 486 559 37,000  Level Minneapolis Center
05:23PM 43.8047 -99.1456 86° East 486 559 37,000  Level Minneapolis Center
05:24PM 43.8131 -98.9581 86° East 489 563 37,000  Level Minneapolis Center
05:25PM 43.8236 -98.7342 86° East 489 563 37,000  Level Minneapolis Center
05:26PM 43.8308 -98.5531 87° East 493 567 37,000  Level Minneapolis Center
05:27PM 43.8389 -98.3664 87° East 490 564 37,000  Level Minneapolis Center
05:28PM 43.8464 -98.1758 87° East 495 570 37,000  Level Minneapolis Center
05:29PM 43.8522 -98.0228 87° East 498 573 37,000  Level Minneapolis Center
05:30PM 43.8622 -97.7539 87° East 500 575 37,000  Level Minneapolis Center
05:31PM 43.8703 -97.5239 87° East 500 575 37,000  Level Minneapolis Center
05:32PM 43.8767 -97.3331 87° East 499 574 37,000  Level Minneapolis Center
05:33PM 43.8819 -97.1419 88° East 499 574 37,000  Level Minneapolis Center
05:34PM 43.8878 -96.9511 88° East 499 574 37,000  Level Minneapolis Center
05:35PM 43.8939 -96.7231 88° East 498 573 37,000  Level Minneapolis Center
05:36PM 43.8981 -96.5344 88° East 496 571 37,000  Level Minneapolis Center
05:37PM 43.9025 -96.3447 88° East 498 573 37,000  Level Minneapolis Center
05:38PM 43.9078 -96.1558 88° East 500 575 37,000  Level Minneapolis Center
05:39PM 43.9119 -95.9669 88° East 498 573 37,000  Level Minneapolis Center
05:40PM 43.9164 -95.7389 88° East 500 575 37,000  Level Minneapolis Center
05:41PM 43.9186 -95.5478 89° East 500 575 37,000  Level Minneapolis Center
05:42PM 43.9222 -95.3575 88° East 497 572 37,000  Level Minneapolis Center
05:43PM 43.9239 -95.1644 89° East 503 579 37,000  Level Minneapolis Center
05:44PM 43.9264 -94.9719 89° East 501 577 37,000  Level Minneapolis Center
05:45PM 43.9289 -94.7806 89° East 499 574 37,000  Level Minneapolis Center
05:46PM 43.9308 -94.5517 89° East 497 572 37,000  Level Minneapolis Center
05:48PM 43.9322 -94.3589 89° East 500 575 37,000  Level Minneapolis Center
05:49PM 43.9319 -94.1842 90° East 502 578 37,000  Level Minneapolis Center
05:50PM 43.9328 -93.9547 90° East 500 575 37,000  Level Minneapolis Center
05:51PM 43.9317 -93.7642 90° East 499 574 37,000  Level Minneapolis Center
05:52PM 43.9333 -93.5731 89° East 500 575 37,000  Level Minneapolis Center
05:53PM 43.9328 -93.4214 90° East 498 573 37,000  Level Minneapolis Center
05:54PM 43.9325 -93.1911 90° East 502 578 37,000  Level Minneapolis Center
05:55PM 43.9136 -92.9636 96° East 500 575 37,000  Level Minneapolis Center
05:56PM 43.8933 -92.7736 98° East 501 577 37,000  Level Minneapolis Center
05:57PM 43.8753 -92.5836 97° East 502 578 37,000  Level Minneapolis Center
05:58PM 43.8553 -92.3928 98° East 504 580 37,000  Level Minneapolis Center
05:59PM 43.8356 -92.2008 98° East 507 583 37,000 -300 Level Minneapolis Center
06:00PM 43.8136 -92.0089 99° East 507 583 36,400 -840 Descending Minneapolis Center
06:01PM 43.7911 -91.7831 98° East 520 598 35,300 -1,080 Descending Minneapolis Center
06:02PM 43.7706 -91.5933 98° East 505 581 34,300 -1,020 Descending Minneapolis Center
06:03PM 43.7503 -91.4064 98° East 496 571 33,300 -900 Descending Minneapolis Center
06:04PM 43.7322 -91.2575 99° East 495 570 32,500 -1,020 Descending Minneapolis Center
06:05PM 43.7072 -91.0347 99° East 493 567 31,200 -780 Descending Minneapolis Center
06:06PM 43.6806 -90.8131 99° East 489 563 31,000 -120 Descending Minneapolis Center
06:07PM 43.6594 -90.6281 99° East 490 564 31,000 -600 Level Minneapolis Center
06:08PM 43.6375 -90.4411 99° East 494 568 29,800 -1,320 Descending Minneapolis Center
06:09PM 43.6142 -90.2561 100° East 493 567 28,300 -1,500 Descending Minneapolis Center
06:10PM 43.5914 -90.0758 100° East 474 545 26,800 -1,500 Descending Minneapolis Center
06:11PM 43.5697 -89.9028 100° East 462 532 25,300 -1,680 Descending Minneapolis Center
06:12PM 43.5164 -89.7264 113° Southeast 446 513 23,400 -1,860 Descending Minneapolis Center
06:13PM 43.4233 -89.6294 143° Southeast 425 489 21,500 -1,680 Descending Minneapolis Center
06:14PM 43.3328 -89.5358 143° Southeast 415 478 20,000 -1,500 Descending Minneapolis Center
06:15PM 43.2442 -89.4439 143° Southeast 405 466 18,500 -1,380 Descending Minneapolis Center
06:17PM 43.1558 -89.3531 143° Southeast 400 460 17,000 -1,560 Descending Minneapolis Center
06:18PM 43.0228 -89.2919 161° South 376 433 15,000 -1,500 Descending Chicago Center
06:19PM 42.9278 -89.2544 164° South 359 413 13,900 -1,080 Descending Chicago Center